Time;durP1;ratioP1;P1;durP2;ratioP2;P2;SDS_P1;SDS_P2;PMS_P1;PMS_P2;Temp;Humidity;BMP_temperature;BMP_pressure;BME280_temperature;BME280_humidity;BME280_pressure;Samples;Min_cycle;Max_cycle;Signal;HPM_P1;HPM_P2
2023/01/13 00:00:25;;;;;;;4.20;0.80;;;;;;;8.01;86.55;99789.96;106504;1262;23145;-60
2023/01/13 00:03:16;;;;;;;6.00;0.80;;;;;;;7.99;86.79;99786.54;106551;1262;22671;-62
2023/01/13 00:05:46;;;;;;;4.20;0.60;;;;;;;7.99;86.82;99793.09;106488;1270;25344;-61
2023/01/13 00:08:17;;;;;;;3.00;0.70;;;;;;;7.97;86.68;99792.05;106517;1270;22521;-62
2023/01/13 00:10:49;;;;;;;3.90;0.80;;;;;;;7.97;86.80;99785.63;106498;1277;25298;-62
2023/01/13 00:13:25;;;;;;;3.80;0.60;;;;;;;7.97;86.84;99781.59;106512;1262;25429;-60
2023/01/13 00:16:01;;;;;;;3.50;0.80;;;;;;;7.96;87.18;99780.11;106665;1276;22570;-60
2023/01/13 00:18:33;;;;;;;4.90;1.10;;;;;;;7.96;87.22;99782.92;106571;1274;23027;-61
2023/01/13 00:21:05;;;;;;;4.00;1.00;;;;;;;7.95;87.41;99782.45;106500;1261;24269;-61
2023/01/13 00:23:38;;;;;;;4.90;0.90;;;;;;;7.95;87.47;99784.86;106655;1271;24276;-62
2023/01/13 00:26:11;;;;;;;4.70;0.90;;;;;;;7.93;87.52;99780.13;106524;1270;23443;-63
2023/01/13 00:28:43;;;;;;;3.40;0.90;;;;;;;7.91;87.35;99780.13;106650;1277;25375;-64
2023/01/13 00:31:16;;;;;;;5.50;0.80;;;;;;;7.91;87.50;99779.27;106495;1276;23161;-61
2023/01/13 00:33:49;;;;;;;7.40;1.20;;;;;;;7.89;87.51;99777.21;106543;1262;22530;-62
2023/01/13 00:36:21;;;;;;;8.40;1.30;;;;;;;7.87;87.55;99774.13;106563;1270;25577;-62
2023/01/13 00:38:53;;;;;;;5.40;0.70;;;;;;;7.87;87.56;99771.04;106583;1275;22556;-60
2023/01/13 00:41:25;;;;;;;4.80;0.70;;;;;;;7.86;87.61;99766.54;106555;1262;22569;-59
2023/01/13 00:43:56;;;;;;;5.60;0.70;;;;;;;7.87;87.72;99769.48;106562;1277;25406;-62
2023/01/13 00:46:27;;;;;;;5.00;0.70;;;;;;;7.87;87.61;99770.55;106470;1271;24260;-63
2023/01/13 00:48:58;;;;;;;5.50;0.70;;;;;;;7.88;87.59;99771.31;106580;1276;25649;-62
2023/01/13 00:51:30;;;;;;;3.60;0.60;;;;;;;7.88;87.79;99769.64;106542;1270;24379;-62
2023/01/13 00:54:01;;;;;;;4.90;0.90;;;;;;;7.89;87.77;99766.58;106523;1270;24276;-61
2023/01/13 00:56:32;;;;;;;2.90;0.60;;;;;;;7.90;87.84;99763.69;106493;1276;22533;-62
2023/01/13 00:59:03;;;;;;;4.10;0.60;;;;;;;7.90;87.79;99765.56;106483;1270;22539;-60
2023/01/13 01:01:34;;;;;;;5.30;1.20;;;;;;;7.91;87.79;99758.70;106591;1273;23039;-62
2023/01/13 01:04:05;;;;;;;2.40;0.60;;;;;;;7.91;87.88;99757.00;106673;1261;22654;-62
2023/01/13 01:06:36;;;;;;;3.00;0.50;;;;;;;7.92;88.00;99757.98;106497;1271;24423;-63
2023/01/13 01:09:07;;;;;;;4.60;0.60;;;;;;;7.93;88.01;99757.65;106274;1271;24595;-63
2023/01/13 01:11:38;;;;;;;3.30;0.70;;;;;;;7.93;87.86;99759.30;106519;1270;22551;-61
2023/01/13 01:14:11;;;;;;;4.70;0.60;;;;;;;7.94;87.88;99758.23;106495;1270;22540;-61
2023/01/13 01:16:42;;;;;;;5.00;0.50;;;;;;;7.95;87.89;99750.10;106487;1277;22529;-61
2023/01/13 01:19:13;;;;;;;4.20;0.80;;;;;;;7.96;87.84;99745.27;106580;1277;25358;-62
2023/01/13 01:21:44;;;;;;;2.80;0.60;;;;;;;7.96;87.89;99741.34;106420;1273;25997;-60
2023/01/13 01:24:15;;;;;;;1.70;0.50;;;;;;;7.97;88.03;99736.45;106454;1262;22590;-62
2023/01/13 01:26:46;;;;;;;4.30;0.70;;;;;;;7.98;87.90;99737.60;106507;1270;22524;-61
2023/01/13 01:29:17;;;;;;;4.50;0.70;;;;;;;7.98;87.91;99735.84;106529;1276;22550;-64
2023/01/13 01:31:48;;;;;;;2.40;0.60;;;;;;;7.99;87.87;99731.59;106545;1271;22556;-59
2023/01/13 01:34:19;;;;;;;4.50;0.80;;;;;;;7.99;87.75;99733.02;106507;1271;24286;-62
2023/01/13 01:36:50;;;;;;;4.00;0.50;;;;;;;8.00;87.78;99727.98;106464;1262;22534;-60
2023/01/13 01:39:21;;;;;;;4.10;0.60;;;;;;;8.01;87.90;99725.41;106466;1273;22697;-62
2023/01/13 01:44:58;;;;;;;3.90;0.50;;;;;;;8.01;87.93;99719.91;106460;1277;22635;-61
2023/01/13 01:47:32;;;;;;;4.00;0.60;;;;;;;8.00;87.85;99711.30;106544;1276;22572;-62
2023/01/13 01:50:04;;;;;;;4.50;0.80;;;;;;;8.00;87.92;99701.54;106549;1277;22538;-60
2023/01/13 01:52:40;;;;;;;2.90;0.50;;;;;;;8.00;88.09;99700.27;106665;1277;24275;-61
2023/01/13 01:55:15;;;;;;;3.00;0.60;;;;;;;8.00;87.90;99694.22;106658;1261;25253;-61
2023/01/13 01:57:53;;;;;;;4.40;0.60;;;;;;;8.00;87.82;99694.31;106548;1272;22540;-62
2023/01/13 02:00:26;;;;;;;10.00;0.70;;;;;;;8.00;87.85;99689.61;106548;1277;22523;-61
2023/01/13 02:02:59;;;;;;;3.30;0.60;;;;;;;8.00;87.75;99686.38;106593;1262;22527;-60
2023/01/13 02:05:31;;;;;;;2.40;0.60;;;;;;;7.99;87.74;99687.58;106490;1262;22668;-62
2023/01/13 02:08:03;;;;;;;3.60;0.40;;;;;;;8.00;87.60;99695.58;106584;1277;22527;-62
2023/01/13 02:10:34;;;;;;;4.40;0.60;;;;;;;7.99;87.57;99692.43;106542;1277;25507;-60
2023/01/13 02:13:08;;;;;;;4.30;0.60;;;;;;;8.00;87.46;99685.67;106525;1277;22537;-61
2023/01/13 02:15:48;;;;;;;3.70;0.50;;;;;;;7.99;87.45;99683.17;106642;1277;25266;-61
2023/01/13 02:18:42;;;;;;;2.10;0.40;;;;;;;7.98;87.25;99683.95;106726;1274;22695;-62
2023/01/13 02:21:42;;;;;;;3.30;0.60;;;;;;;7.97;87.22;99679.08;106608;1274;24254;-63
2023/01/13 02:24:53;;;;;;;3.50;0.70;;;;;;;7.97;87.13;99678.75;106025;1283;24293;-62
2023/01/13 02:27:50;;;;;;;3.10;0.30;;;;;;;7.98;86.71;99672.80;106137;1283;24278;-61
2023/01/13 02:33:42;;;;;;;5.00;0.60;;;;;;;8.05;86.37;99666.33;105566;1286;24370;-61
2023/01/13 02:36:31;;;;;;;3.70;0.50;;;;;;;8.10;86.23;99678.39;105345;1292;22555;-60
2023/01/13 02:39:10;;;;;;;3.70;0.50;;;;;;;8.13;86.25;99685.13;105263;1288;25711;-60
2023/01/13 02:44:43;;;;;;;2.30;0.30;;;;;;;8.22;85.99;99681.01;105298;1275;24307;-62
2023/01/13 02:47:20;;;;;;;4.10;0.50;;;;;;;8.27;86.05;99681.88;105282;1282;24313;-61
2023/01/13 02:49:56;;;;;;;3.10;0.50;;;;;;;8.29;85.93;99682.20;105311;1294;26242;-62
2023/01/13 02:52:34;;;;;;;1.00;0.30;;;;;;;8.31;85.76;99683.84;105271;1293;22560;-61
2023/01/13 02:55:12;;;;;;;3.20;0.60;;;;;;;8.32;85.69;99684.02;105246;1286;22815;-61
2023/01/13 02:57:44;;;;;;;3.10;0.40;;;;;;;8.33;85.71;99683.72;105382;1288;25376;-60
2023/01/13 03:00:18;;;;;;;3.10;0.60;;;;;;;8.33;85.96;99684.94;105380;1293;24233;-62
2023/01/13 03:02:50;;;;;;;4.00;0.60;;;;;;;8.33;85.89;99681.28;105604;1276;22539;-61
2023/01/13 03:05:21;;;;;;;4.70;0.60;;;;;;;8.32;85.84;99679.35;105750;1273;22546;-62
2023/01/13 03:08:07;;;;;;;4.10;0.50;;;;;;;8.30;85.79;99673.80;105686;1285;22536;-61
2023/01/13 03:10:52;;;;;;;2.60;0.40;;;;;;;8.29;85.89;99672.77;105821;1283;22548;-61
2023/01/13 03:13:39;;;;;;;4.20;0.70;;;;;;;8.26;85.93;99675.59;106124;1277;22583;-62
2023/01/13 03:16:23;;;;;;;4.70;0.60;;;;;;;8.24;85.89;99675.77;106393;1272;24277;-61
2023/01/13 03:19:02;;;;;;;2.60;0.50;;;;;;;8.22;86.00;99675.23;106665;1260;22529;-64
2023/01/13 03:21:41;;;;;;;2.50;0.50;;;;;;;8.20;85.76;99674.05;106545;1272;24388;-61
2023/01/13 03:24:17;;;;;;;5.40;0.80;;;;;;;8.19;85.90;99672.66;106540;1271;23029;-60
2023/01/13 03:26:52;;;;;;;4.50;0.50;;;;;;;8.19;85.89;99674.42;106530;1262;24280;-62
2023/01/13 03:29:27;;;;;;;4.00;0.60;;;;;;;8.19;85.78;99668.06;106642;1276;25346;-62
2023/01/13 03:32:05;;;;;;;5.00;0.60;;;;;;;8.18;85.85;99668.00;106496;1271;24421;-60
2023/01/13 03:34:43;;;;;;;3.20;0.70;;;;;;;8.18;85.80;99675.58;106502;1277;25403;-59
2023/01/13 03:37:18;;;;;;;4.20;0.70;;;;;;;8.19;85.76;99674.73;106489;1277;23014;-61
2023/01/13 03:39:54;;;;;;;3.00;0.50;;;;;;;8.19;85.82;99670.52;106525;1277;22534;-61
2023/01/13 03:42:30;;;;;;;4.50;0.60;;;;;;;8.18;86.04;99664.70;106530;1271;24252;-61
2023/01/13 03:45:10;;;;;;;6.30;0.80;;;;;;;8.15;86.26;99663.74;102603;1262;5491051;-62
2023/01/13 03:47:49;;;;;;;4.90;1.00;;;;;;;8.14;86.34;99666.55;106603;1262;24242;-62
2023/01/13 03:50:23;;;;;;;3.60;0.80;;;;;;;8.12;86.37;99660.95;106499;1271;22609;-60
2023/01/13 03:52:58;;;;;;;3.90;0.70;;;;;;;8.10;86.45;99659.95;106463;1274;23208;-61
2023/01/13 03:55:34;;;;;;;5.10;0.70;;;;;;;8.09;86.45;99660.78;106522;1275;22550;-62
2023/01/13 03:58:13;;;;;;;6.10;0.80;;;;;;;8.08;86.45;99659.45;106454;1272;22535;-61
2023/01/13 04:00:49;;;;;;;5.20;0.70;;;;;;;8.06;86.51;99659.52;106637;1262;24350;-63
2023/01/13 04:03:27;;;;;;;5.80;0.70;;;;;;;8.06;86.55;99658.44;106579;1277;22685;-62
2023/01/13 04:06:07;;;;;;;6.90;0.70;;;;;;;8.05;86.69;99653.21;106646;1269;22531;-62
2023/01/13 04:08:45;;;;;;;3.40;0.70;;;;;;;8.05;86.63;99652.77;106530;1277;23041;-62
2023/01/13 04:11:23;;;;;;;5.10;0.80;;;;;;;8.05;86.58;99651.80;106579;1270;25526;-61
2023/01/13 04:13:55;;;;;;;4.10;0.60;;;;;;;8.03;86.17;99648.95;106459;1277;22537;-61
2023/01/13 04:16:27;;;;;;;3.60;0.60;;;;;;;8.03;86.35;99651.10;106562;1262;24269;-62
2023/01/13 04:18:58;;;;;;;4.90;0.70;;;;;;;8.03;86.29;99648.27;106560;1277;24411;-62
2023/01/13 04:21:30;;;;;;;3.00;0.70;;;;;;;8.03;86.38;99650.80;106483;1268;24105;-62
2023/01/13 04:24:01;;;;;;;2.60;0.50;;;;;;;8.01;86.18;99648.25;106567;1258;25362;-61
2023/01/13 04:26:32;;;;;;;2.80;0.60;;;;;;;8.02;86.29;99647.76;106535;1272;22796;-61
2023/01/13 04:29:03;;;;;;;3.30;0.60;;;;;;;8.02;86.28;99645.13;106540;1277;22574;-62
2023/01/13 04:31:34;;;;;;;3.80;0.80;;;;;;;8.01;86.18;99641.02;106542;1277;23025;-61
2023/01/13 04:34:05;;;;;;;3.70;0.50;;;;;;;8.01;86.18;99646.58;106519;1273;22556;-62
2023/01/13 04:36:36;;;;;;;2.30;0.50;;;;;;;8.02;86.11;99644.96;106502;1271;25563;-62
2023/01/13 04:39:07;;;;;;;2.30;0.40;;;;;;;8.02;86.12;99642.41;106510;1259;24321;-62
2023/01/13 04:44:22;;;;;;;4.90;0.60;;;;;;;8.04;86.05;99638.75;106505;1270;22530;-61
2023/01/13 04:46:54;;;;;;;1.90;0.80;;;;;;;8.05;86.02;99638.21;106351;1277;24245;-61
2023/01/13 04:49:25;;;;;;;1.30;0.30;;;;;;;8.05;85.94;99631.23;106612;1277;23160;-61
2023/01/13 04:51:56;;;;;;;5.80;0.60;;;;;;;8.05;85.90;99634.08;106513;1272;24346;-61
2023/01/13 04:54:27;;;;;;;3.40;0.60;;;;;;;8.05;85.84;99635.34;106489;1275;24269;-61
2023/01/13 04:56:58;;;;;;;3.70;0.30;;;;;;;8.06;85.74;99633.48;106484;1268;22534;-62
2023/01/13 04:59:29;;;;;;;3.80;0.50;;;;;;;8.07;85.84;99633.49;106395;1263;25274;-62
2023/01/13 05:02:00;;;;;;;4.30;0.60;;;;;;;8.08;85.76;99632.26;106505;1277;22546;-61
2023/01/13 05:04:31;;;;;;;2.50;0.80;;;;;;;8.08;85.76;99630.23;106525;1277;24253;-60
2023/01/13 05:07:02;;;;;;;8.70;0.50;;;;;;;8.09;85.76;99635.36;106602;1270;24490;-61
2023/01/13 05:09:33;;;;;;;2.90;0.60;;;;;;;8.10;85.78;99633.59;106385;1277;24397;-61
2023/01/13 05:17:42;;;;;;;5.60;0.70;;;;;;;8.09;85.66;99633.48;106595;1256;24321;-62
2023/01/13 05:20:14;;;;;;;2.50;0.60;;;;;;;8.09;85.69;99635.55;106628;1272;25262;-65
2023/01/13 05:25:42;;;;;;;2.60;0.40;;;;;;;8.09;85.49;99632.73;106560;1277;22535;-62
2023/01/13 05:28:13;;;;;;;6.20;0.60;;;;;;;8.09;85.51;99633.29;106564;1263;24242;-63
2023/01/13 05:30:46;;;;;;;4.40;0.50;;;;;;;8.10;85.48;99628.57;106527;1270;22611;-63
2023/01/13 05:33:20;;;;;;;5.50;0.50;;;;;;;8.10;85.56;99628.11;106516;1268;25317;-61
2023/01/13 05:35:51;;;;;;;3.80;0.40;;;;;;;8.11;85.54;99626.32;106534;1277;22564;-63
2023/01/13 05:38:22;;;;;;;2.80;0.80;;;;;;;8.12;85.33;99629.75;106496;1275;22534;-62
2023/01/13 05:43:42;;;;;;;5.30;0.50;;;;;;;8.13;85.25;99626.34;106455;1272;25386;-61
2023/01/13 05:46:16;;;;;;;3.70;0.40;;;;;;;8.15;85.07;99627.53;106506;1262;24279;-61
2023/01/13 05:48:47;;;;;;;4.40;0.40;;;;;;;8.16;85.07;99622.36;106666;1272;24247;-61
2023/01/13 05:51:24;;;;;;;4.00;0.50;;;;;;;8.18;85.18;99622.29;106475;1272;22531;-62
2023/01/13 05:53:58;;;;;;;2.50;0.50;;;;;;;8.19;85.01;99625.64;106626;1270;22546;-60
2023/01/13 05:56:28;;;;;;;3.60;0.40;;;;;;;8.20;84.85;99625.59;106549;1262;22558;-62
2023/01/13 05:59:00;;;;;;;5.90;0.50;;;;;;;8.21;84.94;99628.96;106555;1277;25449;-61
2023/01/13 06:01:31;;;;;;;4.30;0.60;;;;;;;8.22;85.04;99628.73;106543;1258;22655;-61
2023/01/13 06:04:02;;;;;;;3.60;0.60;;;;;;;8.24;84.92;99632.65;106536;1263;24383;-60
2023/01/13 06:06:32;;;;;;;4.10;0.50;;;;;;;8.24;85.06;99637.45;106489;1259;22534;-62
2023/01/13 06:09:04;;;;;;;10.20;1.40;;;;;;;8.24;85.32;99638.56;106535;1277;22640;-62
2023/01/13 06:11:35;;;;;;;3.60;0.50;;;;;;;8.24;85.14;99637.96;106576;1276;24323;-62
2023/01/13 06:14:06;;;;;;;3.60;0.60;;;;;;;8.23;85.34;99639.35;106534;1272;24268;-61
2023/01/13 06:16:37;;;;;;;3.90;0.70;;;;;;;8.22;85.30;99636.05;106556;1277;22529;-63
2023/01/13 06:19:11;;;;;;;2.50;0.60;;;;;;;8.21;85.45;99638.32;106665;1274;22556;-62
2023/01/13 06:21:43;;;;;;;3.10;0.50;;;;;;;8.20;85.55;99634.81;106698;1271;22533;-62
2023/01/13 06:24:14;;;;;;;3.50;0.60;;;;;;;8.19;85.47;99634.55;106808;1275;22880;-60
2023/01/13 06:26:45;;;;;;;4.30;0.50;;;;;;;8.19;85.63;99633.58;106543;1270;24262;-64
2023/01/13 06:29:16;;;;;;;2.70;0.50;;;;;;;8.18;85.55;99630.68;106842;1276;24223;-63
2023/01/13 06:31:47;;;;;;;3.00;0.50;;;;;;;8.18;85.37;99626.58;106666;1277;22530;-62
2023/01/13 06:34:19;;;;;;;4.20;0.40;;;;;;;8.18;85.35;99627.84;106552;1275;22547;-63
2023/01/13 06:36:53;;;;;;;7.10;0.60;;;;;;;8.18;85.44;99631.83;106645;1273;24282;-61
2023/01/13 06:39:29;;;;;;;2.60;0.50;;;;;;;8.19;85.60;99637.16;106380;1273;22573;-63
2023/01/13 06:44:49;;;;;;;;;;;;;;;8.19;85.39;99631.11;106416;1275;22635;-62
2023/01/13 06:47:22;;;;;;;3.80;0.60;;;;;;;8.19;85.40;99636.26;106667;1271;23029;-63
2023/01/13 06:49:53;;;;;;;6.00;0.60;;;;;;;8.20;85.38;99632.58;106673;1271;25325;-62
2023/01/13 06:52:26;;;;;;;5.80;0.80;;;;;;;8.21;85.34;99634.83;106730;1267;22788;-63
2023/01/13 06:54:57;;;;;;;5.80;0.60;;;;;;;8.22;85.47;99636.95;106654;1277;22512;-61
2023/01/13 06:57:27;;;;;;;2.80;0.40;;;;;;;8.22;85.32;99635.44;106570;1277;25554;-63
2023/01/13 06:59:58;;;;;;;5.20;0.50;;;;;;;8.22;85.51;99635.90;106582;1275;22766;-64
2023/01/13 07:02:29;;;;;;;4.60;0.50;;;;;;;8.21;85.42;99631.98;106569;1270;22745;-62
2023/01/13 07:05:00;;;;;;;5.50;0.50;;;;;;;8.20;85.46;99633.04;106550;1277;22513;-63
2023/01/13 07:07:32;;;;;;;3.00;0.50;;;;;;;8.19;85.39;99635.39;106536;1277;22533;-62
2023/01/13 07:10:03;;;;;;;7.40;0.90;;;;;;;8.19;85.44;99637.38;106527;1271;25486;-62
2023/01/13 07:15:17;;;;;;;8.10;0.70;;;;;;;8.20;85.47;99636.77;106467;1261;22546;-63
2023/01/13 07:15:26;;;;;;;3.60;0.80;;;;;;;8.21;85.64;99632.95;106507;1277;22530;-62
2023/01/13 07:17:58;;;;;;;5.60;0.80;;;;;;;8.22;85.49;99639.79;106658;1277;22537;-62
2023/01/13 07:20:29;;;;;;;5.10;1.00;;;;;;;8.23;85.71;99637.54;106461;1262;22608;-62
2023/01/13 07:23:00;;;;;;;3.80;0.70;;;;;;;8.23;85.48;99637.45;106524;1277;22536;-62
2023/01/13 07:25:31;;;;;;;5.40;0.80;;;;;;;8.24;85.55;99639.21;106629;1272;22569;-62
2023/01/13 07:28:03;;;;;;;5.80;0.90;;;;;;;8.24;85.64;99638.17;106525;1263;25515;-62
2023/01/13 07:30:34;;;;;;;5.20;0.80;;;;;;;8.25;85.44;99639.25;106556;1277;25376;-62
2023/01/13 07:33:05;;;;;;;8.00;0.70;;;;;;;8.26;85.69;99640.19;106527;1265;24329;-63
2023/01/13 07:35:35;;;;;;;8.60;0.70;;;;;;;8.26;85.73;99635.86;106555;1273;22562;-62
2023/01/13 07:38:07;;;;;;;4.40;0.60;;;;;;;8.26;85.91;99639.50;106555;1272;22553;-63
2023/01/13 07:40:39;;;;;;;6.80;0.90;;;;;;;8.27;85.95;99638.91;106557;1277;24345;-64
2023/01/13 07:46:03;;;;;;;4.40;0.60;;;;;;;8.29;85.93;99636.42;106465;1269;22672;-62
2023/01/13 07:48:35;;;;;;;7.20;0.60;;;;;;;8.30;85.94;99637.80;106610;1275;25298;-62
2023/01/13 07:51:07;;;;;;;2.60;0.50;;;;;;;8.31;85.85;99641.66;106559;1275;25308;-63
2023/01/13 07:53:39;;;;;;;3.80;0.50;;;;;;;8.31;85.83;99640.20;106598;1275;25358;-63
2023/01/13 07:56:10;;;;;;;5.00;0.70;;;;;;;8.33;85.83;99639.57;106509;1273;22647;-62
2023/01/13 07:58:41;;;;;;;2.20;0.40;;;;;;;8.34;86.00;99640.45;106518;1277;22572;-63
2023/01/13 08:01:15;;;;;;;5.60;0.50;;;;;;;8.35;85.92;99642.48;106557;1277;22540;-61
2023/01/13 08:03:46;;;;;;;5.00;0.60;;;;;;;8.35;85.89;99638.71;106587;1274;22580;-62
2023/01/13 08:06:17;;;;;;;5.80;0.60;;;;;;;8.37;85.88;99637.27;106558;1273;22538;-62
2023/01/13 08:08:48;;;;;;;2.70;0.40;;;;;;;8.39;85.80;99635.11;106527;1271;23059;-62
2023/01/13 08:11:19;;;;;;;2.80;0.50;;;;;;;8.40;85.74;99638.29;106497;1270;22654;-63
2023/01/13 08:13:50;;;;;;;5.70;0.60;;;;;;;8.42;85.88;99637.00;106484;1277;23285;-62
2023/01/13 08:16:22;;;;;;;3.00;0.40;;;;;;;8.44;85.57;99632.93;106575;1262;22615;-63
2023/01/13 08:18:53;;;;;;;3.50;0.60;;;;;;;8.45;85.73;99634.69;106679;1275;22551;-62
2023/01/13 08:21:24;;;;;;;3.60;0.40;;;;;;;8.47;85.55;99638.62;106556;1262;22561;-62
2023/01/13 08:23:54;;;;;;;2.70;0.50;;;;;;;8.49;85.38;99640.33;106559;1277;22536;-63
2023/01/13 08:26:26;;;;;;;3.90;0.50;;;;;;;8.52;85.44;99641.84;106546;1260;24273;-63
2023/01/13 08:28:57;;;;;;;3.70;0.50;;;;;;;8.55;85.43;99645.13;106788;1277;22521;-64
2023/01/13 08:31:28;;;;;;;2.80;0.40;;;;;;;8.58;85.38;99644.88;106534;1268;23016;-62
2023/01/13 08:33:59;;;;;;;5.00;1.00;;;;;;;8.61;85.21;99646.95;106546;1270;22519;-63
2023/01/13 08:36:30;;;;;;;3.40;0.50;;;;;;;8.63;85.21;99647.75;106584;1265;25265;-62
2023/01/13 08:39:01;;;;;;;5.30;0.50;;;;;;;8.66;85.16;99646.75;106587;1267;22526;-62
2023/01/13 08:44:22;;;;;;;4.10;0.50;;;;;;;8.71;85.08;99649.46;106546;1259;24244;-63
2023/01/13 08:46:54;;;;;;;4.00;0.60;;;;;;;8.74;84.97;99651.08;106505;1277;22534;-62
2023/01/13 08:49:26;;;;;;;6.20;0.40;;;;;;;8.76;85.06;99653.23;106513;1275;22537;-63
2023/01/13 08:51:57;;;;;;;5.80;0.90;;;;;;;8.78;84.86;99652.52;106574;1262;23233;-62
2023/01/13 08:54:27;;;;;;;7.20;0.80;;;;;;;8.81;84.83;99652.91;106525;1272;22530;-63
2023/01/13 08:56:58;;;;;;;6.40;1.20;;;;;;;8.84;84.77;99655.14;106527;1260;22535;-62
2023/01/13 08:59:29;;;;;;;8.10;1.30;;;;;;;8.86;84.94;99654.46;106520;1276;22530;-62
2023/01/13 09:02:01;;;;;;;4.90;0.90;;;;;;;8.88;84.80;99657.58;106585;1277;22581;-63
2023/01/13 09:04:32;;;;;;;6.30;1.10;;;;;;;8.92;84.69;99660.41;106762;1265;22530;-64
2023/01/13 09:07:03;;;;;;;4.70;0.80;;;;;;;8.94;84.74;99659.86;106514;1270;22534;-62
2023/01/13 09:09:34;;;;;;;3.70;0.60;;;;;;;8.97;84.77;99668.25;106494;1262;24282;-62
2023/01/13 09:14:55;;;;;;;3.60;0.70;;;;;;;9.01;84.73;99663.41;106515;1272;27453;-62
2023/01/13 09:17:26;;;;;;;7.60;0.70;;;;;;;9.04;84.72;99664.92;106640;1272;22529;-62
2023/01/13 09:19:57;;;;;;;7.90;1.00;;;;;;;9.06;84.79;99663.13;106551;1274;22533;-62
2023/01/13 09:22:28;;;;;;;5.80;0.70;;;;;;;9.09;84.79;99669.56;106496;1277;22530;-62
2023/01/13 09:24:59;;;;;;;4.50;0.60;;;;;;;9.12;85.03;99669.80;106651;1277;25590;-63
2023/01/13 09:27:30;;;;;;;4.40;0.60;;;;;;;9.14;85.25;99667.20;106507;1270;24318;-63
2023/01/13 09:30:01;;;;;;;5.60;0.70;;;;;;;9.15;85.32;99663.73;106509;1275;22593;-63
2023/01/13 09:32:32;;;;;;;3.00;0.60;;;;;;;9.16;85.58;99659.48;106513;1269;22588;-62
2023/01/13 09:35:03;;;;;;;4.20;0.70;;;;;;;9.17;85.52;99661.02;106606;1277;25480;-62
2023/01/13 09:37:36;;;;;;;2.80;0.60;;;;;;;9.16;85.61;99661.47;106702;1265;23066;-64
2023/01/13 09:40:16;;;;;;;4.60;0.70;;;;;;;9.17;85.68;99665.23;106592;1264;22683;-63
2023/01/13 09:45:46;;;;;;;4.40;0.60;;;;;;;9.15;85.97;99663.45;106552;1263;24458;-62
2023/01/13 09:48:22;;;;;;;3.20;0.60;;;;;;;9.14;86.39;99667.25;106590;1275;22658;-63
2023/01/13 09:51:08;;;;;;;3.90;0.50;;;;;;;9.13;86.69;99663.79;106415;1266;25280;-62
2023/01/13 09:53:45;;;;;;;5.00;0.60;;;;;;;9.10;86.70;99659.40;106565;1277;25321;-63
2023/01/13 09:56:16;;;;;;;3.20;0.60;;;;;;;9.10;86.82;99661.26;106558;1276;24295;-62
2023/01/13 09:58:48;;;;;;;5.60;0.70;;;;;;;9.09;86.92;99658.77;106538;1277;22533;-62
2023/01/13 10:01:27;;;;;;;6.30;1.00;;;;;;;9.08;87.11;99654.35;106525;1274;22929;-61
2023/01/13 10:04:02;;;;;;;5.30;1.20;;;;;;;9.08;87.15;99652.16;106456;1274;25491;-61
2023/01/13 10:06:35;;;;;;;4.10;0.90;;;;;;;9.06;87.27;99652.90;106662;1277;25439;-62
2023/01/13 10:09:14;;;;;;;4.90;0.80;;;;;;;9.04;87.49;99650.35;106606;1262;24270;-63
2023/01/13 10:14:41;;;;;;;12.50;1.40;;;;;;;9.01;88.11;99640.52;106596;1274;22533;-63
2023/01/13 10:17:23;;;;;;;7.00;1.30;;;;;;;9.01;88.42;99638.05;106564;1272;25991;-60
2023/01/13 10:20:03;;;;;;;6.20;1.10;;;;;;;9.03;88.70;99637.25;106691;1277;22533;-62
2023/01/13 10:22:47;;;;;;;3.60;0.70;;;;;;;9.05;88.70;99633.64;106588;1274;24263;-60
2023/01/13 10:25:28;;;;;;;8.00;0.90;;;;;;;9.07;88.81;99627.86;106701;1273;25409;-62
2023/01/13 10:28:09;;;;;;;6.60;1.00;;;;;;;9.08;88.90;99631.11;106459;1277;22681;-62
2023/01/13 10:30:42;;;;;;;3.60;0.80;;;;;;;9.09;89.04;99626.77;106584;1270;25574;-62
2023/01/13 10:33:17;;;;;;;4.90;0.70;;;;;;;9.12;88.95;99626.45;106682;1276;24718;-61
2023/01/13 10:35:58;;;;;;;2.80;0.50;;;;;;;9.15;89.02;99624.34;106613;1277;22663;-62
2023/01/13 10:38:36;;;;;;;3.30;0.50;;;;;;;9.18;88.92;99619.36;106586;1276;24269;-63
2023/01/13 10:41:17;;;;;;;1.30;0.50;;;;;;;9.20;88.82;99620.76;106573;1263;22535;-61
2023/01/13 10:44:03;;;;;;;5.60;0.60;;;;;;;9.22;88.90;99613.05;106580;1277;24380;-63
2023/01/13 10:46:54;;;;;;;3.10;0.50;;;;;;;9.24;88.96;99609.68;106790;1277;24360;-61
2023/01/13 10:49:35;;;;;;;5.40;0.60;;;;;;;9.27;88.69;99608.77;106515;1277;22661;-63
2023/01/13 10:52:28;;;;;;;3.00;0.50;;;;;;;9.31;88.57;99612.80;106612;1277;24272;-62
2023/01/13 10:54:59;;;;;;;2.90;0.60;;;;;;;9.34;88.58;99610.47;106470;1277;22649;-63
2023/01/13 10:57:36;;;;;;;3.60;0.60;;;;;;;9.36;88.52;99614.35;106606;1270;25580;-62
2023/01/13 11:00:32;;;;;;;4.10;0.70;;;;;;;9.39;88.46;99610.44;106259;1271;25350;-65
2023/01/13 11:03:17;;;;;;;5.10;0.70;;;;;;;9.42;88.20;99607.69;106499;1275;25682;-61
2023/01/13 11:05:53;;;;;;;3.40;0.60;;;;;;;9.46;88.14;99602.58;106546;1276;23033;-62
2023/01/13 11:08:27;;;;;;;3.00;0.50;;;;;;;9.52;88.15;99593.39;106623;1276;22743;-62
2023/01/13 11:10:59;;;;;;;4.40;0.60;;;;;;;9.57;88.18;99595.13;106670;1277;25376;-62
2023/01/13 11:13:36;;;;;;;4.30;0.70;;;;;;;9.60;87.40;99595.23;106853;1270;22529;-61
2023/01/13 11:16:13;;;;;;;6.10;0.70;;;;;;;9.63;87.25;99594.34;106684;1277;24298;-62
2023/01/13 11:19:01;;;;;;;2.40;0.50;;;;;;;9.66;87.09;99588.34;106653;1277;22541;-61
2023/01/13 11:21:43;;;;;;;6.80;0.80;;;;;;;9.70;87.13;99590.11;106510;1277;25300;-62
2023/01/13 11:24:21;;;;;;;3.40;0.60;;;;;;;9.72;86.80;99590.49;106567;1277;26149;-62
2023/01/13 11:26:59;;;;;;;7.40;1.00;;;;;;;9.74;86.43;99590.92;106471;1274;25283;-61
2023/01/13 11:29:34;;;;;;;5.00;0.80;;;;;;;9.77;86.37;99589.60;106621;1272;22576;-61
2023/01/13 11:32:12;;;;;;;10.00;1.30;;;;;;;9.80;86.18;99589.98;106442;1272;22545;-61
2023/01/13 11:34:46;;;;;;;9.90;0.80;;;;;;;9.84;86.40;99591.86;106607;1277;22535;-62
2023/01/13 11:37:23;;;;;;;11.40;1.80;;;;;;;9.88;86.03;99588.05;106605;1272;22551;-64
2023/01/13 11:40:00;;;;;;;5.70;1.00;;;;;;;9.93;86.00;99591.34;106467;1273;24259;-63
2023/01/13 11:42:38;;;;;;;3.60;0.80;;;;;;;9.98;86.18;99589.29;106622;1277;23312;-62
2023/01/13 11:45:20;;;;;;;3.00;0.50;;;;;;;10.02;86.10;99584.80;106485;1270;22665;-63
2023/01/13 11:47:56;;;;;;;2.40;0.50;;;;;;;10.04;85.79;99578.38;106385;1277;24238;-61
2023/01/13 11:50:34;;;;;;;3.80;0.70;;;;;;;10.05;85.68;99575.55;106565;1277;22541;-61
2023/01/13 11:53:21;;;;;;;5.10;1.30;;;;;;;10.05;85.48;99576.58;106713;1277;22557;-62
2023/01/13 11:56:03;;;;;;;3.80;0.80;;;;;;;10.07;85.27;99579.06;106521;1277;22680;-62
2023/01/13 11:58:57;;;;;;;4.40;0.60;;;;;;;10.08;85.13;99580.04;106709;1277;24282;-63
2023/01/13 12:01:43;;;;;;;4.20;0.50;;;;;;;10.10;85.24;99580.02;106547;1272;24394;-61
2023/01/13 12:04:24;;;;;;;3.20;0.50;;;;;;;10.12;85.24;99581.90;106625;1277;25252;-61
2023/01/13 12:07:11;;;;;;;4.10;0.60;;;;;;;10.14;85.09;99584.81;106572;1276;22541;-63
2023/01/13 12:09:56;;;;;;;4.40;0.60;;;;;;;10.15;84.85;99584.70;106578;1274;22756;-60
2023/01/13 12:12:39;;;;;;;7.80;1.00;;;;;;;10.15;84.87;99582.94;106645;1277;24259;-62
2023/01/13 12:15:36;;;;;;;4.30;0.70;;;;;;;10.15;84.71;99581.17;106571;1274;22533;-63
2023/01/13 12:18:35;;;;;;;3.00;0.60;;;;;;;10.16;84.63;99577.27;106554;1276;24260;-63
2023/01/13 12:21:20;;;;;;;4.70;0.80;;;;;;;10.17;84.54;99580.97;106519;1277;22664;-62
2023/01/13 12:24:05;;;;;;;4.50;0.80;;;;;;;10.19;84.54;99580.14;106533;1276;22533;-62
2023/01/13 12:26:42;;;;;;;4.10;0.90;;;;;;;10.20;84.44;99579.60;106561;1264;22631;-62
2023/01/13 12:29:18;;;;;;;4.60;0.70;;;;;;;10.20;84.49;99578.34;106585;1270;22533;-61
2023/01/13 12:31:51;;;;;;;5.90;0.70;;;;;;;10.21;84.39;99579.85;106661;1277;24193;-62
2023/01/13 12:34:33;;;;;;;4.30;0.60;;;;;;;10.20;84.25;99579.08;106688;1271;22531;-62
2023/01/13 12:37:13;;;;;;;6.70;1.00;;;;;;;10.20;84.15;99583.80;106514;1273;25256;-62
2023/01/13 12:40:01;;;;;;;5.60;0.80;;;;;;;10.20;84.36;99581.06;106711;1275;22536;-62
2023/01/13 12:45:31;;;;;;;5.00;0.70;;;;;;;10.23;84.30;99577.99;106480;1274;24380;-62
2023/01/13 12:48:02;;;;;;;9.40;0.90;;;;;;;10.23;84.15;99575.10;106533;1273;25323;-66
2023/01/13 12:50:42;;;;;;;3.50;0.50;;;;;;;10.23;84.05;99573.23;106539;1261;22537;-62